createdAt,value
2022-09-20T00:02:12.513Z,11.02
2022-09-20T00:05:25.906Z,11.03
2022-09-20T00:07:58.595Z,11.04
2022-09-20T00:10:27.489Z,11.06
2022-09-20T00:13:07.340Z,11.08
2022-09-20T00:16:14.565Z,11.09
2022-09-20T00:18:42.631Z,11.12
2022-09-20T00:21:19.807Z,11.14
2022-09-20T00:23:48.483Z,11.14
2022-09-20T00:26:53.028Z,11.18
2022-09-20T00:29:19.719Z,11.20
2022-09-20T00:31:47.399Z,11.21
2022-09-20T00:34:32.798Z,11.22
2022-09-20T00:37:00.250Z,11.22
2022-09-20T00:39:31.201Z,11.26
2022-09-20T00:41:57.736Z,11.26
2022-09-20T00:45:01.440Z,11.26
2022-09-20T00:47:35.249Z,11.26
2022-09-20T00:50:44.448Z,11.26
2022-09-20T00:53:18.715Z,11.25
2022-09-20T00:55:58.711Z,11.23
2022-09-20T00:58:46.566Z,11.21
2022-09-20T01:01:29.468Z,11.22
2022-09-20T01:04:21.967Z,11.21
2022-09-20T01:06:52.667Z,11.21
2022-09-20T01:09:50.623Z,11.20
2022-09-20T01:12:27.389Z,11.19
2022-09-20T01:15:05.716Z,11.16
2022-09-20T01:17:44.524Z,11.13
2022-09-20T01:20:42.248Z,11.10
2022-09-20T01:23:15.887Z,11.09
2022-09-20T01:26:35.292Z,11.11
2022-09-20T01:29:12.352Z,11.12
2022-09-20T01:32:10.181Z,11.12
2022-09-20T01:35:28.831Z,11.14
2022-09-20T01:38:51.898Z,11.13
2022-09-20T01:41:47.591Z,11.13
2022-09-20T01:44:28.152Z,11.15
2022-09-20T01:47:43.401Z,11.15
2022-09-20T01:50:35.274Z,11.14
2022-09-20T01:53:39.108Z,11.13
2022-09-20T01:56:32.373Z,11.13
2022-09-20T01:59:35.632Z,11.12
2022-09-20T02:02:43.731Z,11.10
2022-09-20T02:05:52.976Z,11.06
2022-09-20T02:09:03.252Z,11.05
2022-09-20T02:11:46.076Z,11.05
2022-09-20T02:15:00.411Z,11.06
2022-09-20T02:18:07.477Z,11.05
2022-09-20T02:21:16.451Z,11.07
2022-09-20T02:24:31.785Z,11.08
2022-09-20T02:27:36.995Z,11.07
2022-09-20T02:30:22.116Z,11.07
2022-09-20T02:33:16.659Z,11.04
2022-09-20T02:36:04.876Z,11.03
2022-09-20T02:39:11.039Z,11.01
2022-09-20T02:42:22.030Z,10.96
2022-09-20T02:45:08.024Z,10.92
2022-09-20T02:47:49.848Z,10.92
2022-09-20T02:50:31.438Z,10.89
2022-09-20T02:53:37.209Z,10.86
2022-09-20T02:56:24.468Z,10.84
2022-09-20T03:03:19.372Z,10.75
2022-09-20T03:06:08.879Z,10.71
2022-09-20T03:09:28.019Z,10.68
2022-09-20T03:12:23.244Z,10.65
2022-09-20T03:15:29.475Z,10.62
2022-09-20T03:18:17.913Z,10.60
2022-09-20T03:21:23.011Z,10.58
2022-09-20T03:24:04.540Z,10.57
2022-09-20T03:27:09.116Z,10.57
2022-09-20T03:29:38.476Z,10.56
2022-09-20T03:32:31.899Z,10.54
2022-09-20T03:35:38.064Z,10.55
2022-09-20T03:38:35.641Z,10.54
2022-09-20T03:41:33.092Z,10.50
2022-09-20T03:44:26.165Z,10.50
2022-09-20T03:47:21.440Z,10.51
2022-09-20T03:50:25.691Z,10.51
2022-09-20T03:53:46.416Z,10.46
2022-09-20T03:57:15.152Z,10.48
2022-09-20T04:00:13.484Z,10.47
2022-09-20T04:03:19.109Z,10.45
2022-09-20T04:09:47.796Z,10.41
2022-09-20T04:13:00.617Z,10.38
2022-09-20T04:15:43.395Z,10.34
2022-09-20T04:19:07.771Z,10.32
2022-09-20T04:21:58.287Z,10.29
2022-09-20T04:24:46.225Z,10.28
2022-09-20T04:27:47.082Z,10.24
2022-09-20T04:30:48.259Z,10.21
2022-09-20T04:33:38.806Z,10.13
2022-09-20T04:36:30.645Z,10.12
2022-09-20T04:39:29.388Z,10.12
2022-09-20T04:42:33.338Z,10.10
2022-09-20T04:45:33.137Z,10.09
2022-09-20T04:52:11.872Z,10.09
2022-09-20T04:55:29.224Z,10.08
2022-09-20T04:58:33.180Z,10.09
2022-09-20T05:01:11.104Z,10.12
2022-09-20T05:04:40.194Z,10.10
2022-09-20T05:07:49.452Z,10.07
2022-09-20T05:11:06.834Z,10.09
2022-09-20T05:14:13.007Z,10.09
2022-09-20T05:17:22.688Z,10.10
2022-09-20T05:20:05.563Z,10.11
2022-09-20T05:22:54.944Z,10.09
2022-09-20T05:29:18.585Z,10.07
2022-09-20T05:32:11.963Z,10.07
2022-09-20T05:35:04.672Z,10.06
2022-09-20T05:38:05.592Z,10.03
2022-09-20T05:41:10.759Z,10.02
2022-09-20T05:48:04.233Z,10.00
2022-09-20T05:51:12.179Z,9.98
2022-09-20T05:54:33.551Z,9.98
2022-09-20T05:57:38.812Z,9.99
2022-09-20T06:00:42.427Z,9.97
2022-09-20T06:03:37.110Z,9.96
2022-09-20T06:10:17.341Z,9.96
2022-09-20T06:13:00.013Z,9.99
2022-09-20T06:15:48.613Z,10.04
2022-09-20T06:18:54.092Z,10.09
2022-09-20T06:21:50.851Z,10.17
2022-09-20T06:24:46.873Z,10.26
2022-09-20T06:27:41.386Z,10.33
2022-09-20T06:30:29.379Z,10.39
2022-09-20T06:33:00.447Z,10.46
2022-09-20T06:36:28.156Z,10.51
2022-09-20T06:39:23.983Z,10.57
2022-09-20T06:42:01.342Z,10.63
2022-09-20T06:44:27.880Z,10.70
2022-09-20T06:47:08.710Z,10.74
2022-09-20T06:49:50.151Z,10.78
2022-09-20T06:52:42.267Z,10.79
2022-09-20T06:55:29.919Z,10.81
2022-09-20T06:57:56.915Z,10.84
2022-09-20T07:00:35.840Z,10.91
2022-09-20T07:03:02.497Z,10.99
2022-09-20T07:05:47.243Z,11.05
2022-09-20T07:08:17.897Z,11.14
2022-09-20T07:11:16.312Z,11.22
2022-09-20T07:13:45.636Z,11.28
2022-09-20T07:16:26.483Z,11.31
2022-09-20T07:19:16.674Z,11.34
2022-09-20T07:21:50.278Z,11.37
2022-09-20T07:24:45.107Z,11.43
2022-09-20T07:27:26.388Z,11.55
2022-09-20T07:29:57.129Z,11.64
2022-09-20T07:32:31.786Z,11.70
2022-09-20T07:35:02.755Z,11.74
2022-09-20T07:37:37.111Z,11.80
2022-09-20T07:40:14.763Z,11.86
2022-09-20T07:42:41.367Z,11.89
2022-09-20T07:45:35.733Z,11.95
2022-09-20T07:48:09.743Z,12.00
2022-09-20T07:50:38.300Z,12.02
2022-09-20T07:53:17.963Z,12.04
2022-09-20T07:56:07.548Z,12.06
2022-09-20T07:58:36.083Z,12.08
2022-09-20T08:01:21.062Z,12.13
2022-09-20T08:03:49.969Z,12.16
2022-09-20T08:06:18.411Z,12.17
2022-09-20T08:09:01.443Z,12.18
2022-09-20T08:11:30.148Z,12.19
2022-09-20T08:14:25.629Z,12.19
2022-09-20T08:17:27.170Z,12.17
2022-09-20T08:20:00.754Z,12.16
2022-09-20T08:22:32.933Z,12.14
2022-09-20T08:25:01.434Z,12.13
2022-09-20T08:27:32.092Z,12.10
2022-09-20T08:30:16.084Z,12.12
2022-09-20T08:32:55.407Z,12.12
2022-09-20T08:35:40.212Z,12.12
2022-09-20T08:41:01.832Z,12.13
2022-09-20T08:44:07.600Z,12.19
2022-09-20T08:47:03.372Z,12.31
2022-09-20T08:49:46.162Z,12.42
2022-09-20T08:52:19.215Z,12.46
2022-09-20T08:54:47.452Z,12.42
2022-09-20T08:57:44.820Z,12.42
2022-09-20T09:00:24.144Z,12.44
2022-09-20T09:03:03.895Z,12.47
2022-09-20T09:05:37.711Z,12.58
2022-09-20T09:08:16.057Z,12.68
2022-09-20T09:11:12.609Z,12.87
2022-09-20T09:14:25.383Z,12.99
2022-09-20T09:16:51.814Z,13.07
2022-09-20T09:19:53.416Z,13.11
2022-09-20T09:22:49.044Z,13.11
2022-09-20T09:25:38.877Z,13.12
2022-09-20T09:28:09.323Z,13.16
2022-09-20T09:30:39.769Z,13.15
2022-09-20T09:33:59.611Z,13.19
2022-09-20T09:36:27.289Z,13.20
2022-09-20T09:39:21.614Z,13.22
2022-09-20T09:42:21.235Z,13.25
2022-09-20T09:44:50.412Z,13.29
2022-09-20T09:47:28.877Z,13.34
2022-09-20T09:50:23.040Z,13.39
2022-09-20T09:53:10.971Z,13.42
2022-09-20T09:56:18.096Z,13.44
2022-09-20T09:58:59.008Z,13.45
2022-09-20T10:02:14.198Z,13.41
2022-09-20T10:05:21.380Z,13.33
2022-09-20T10:08:27.428Z,13.29
2022-09-20T10:11:35.432Z,13.28
2022-09-20T10:18:19.308Z,13.31
2022-09-20T10:21:41.963Z,13.36
2022-09-20T10:24:51.028Z,13.40
2022-09-20T10:27:49.434Z,13.45
2022-09-20T10:30:46.584Z,13.50
2022-09-20T10:34:03.580Z,13.53
2022-09-20T10:37:00.872Z,13.60
2022-09-20T10:39:33.376Z,13.63
2022-09-20T10:42:50.277Z,13.69
2022-09-20T10:48:54.015Z,13.83
2022-09-20T10:51:43.575Z,13.88
2022-09-20T10:54:26.778Z,13.90
2022-09-20T10:57:18.222Z,13.91
2022-09-20T11:00:21.588Z,13.95
2022-09-20T11:03:09.892Z,13.96
2022-09-20T11:05:57.950Z,13.97
2022-09-20T11:08:29.831Z,14.01
2022-09-20T11:11:34.675Z,14.05
2022-09-20T11:14:49.845Z,14.07
2022-09-20T11:17:54.765Z,14.10
2022-09-20T11:20:54.329Z,14.08
2022-09-20T11:23:37.401Z,14.10
2022-09-20T11:26:20.666Z,14.12
2022-09-20T11:29:36.127Z,14.17
2022-09-20T11:32:15.825Z,14.23
2022-09-20T11:34:51.831Z,14.26
2022-09-20T11:37:30.308Z,14.30
2022-09-20T11:40:34.405Z,14.35
2022-09-20T11:43:04.781Z,14.36
2022-09-20T11:45:38.982Z,14.36
2022-09-20T11:48:18.416Z,14.37
2022-09-20T11:51:02.873Z,14.38
2022-09-20T11:54:06.547Z,14.41
2022-09-20T11:56:39.886Z,14.43
2022-09-20T11:59:40.820Z,14.46
2022-09-20T12:02:40.545Z,14.49
2022-09-20T12:05:41.867Z,14.47
2022-09-20T12:08:34.972Z,14.47
2022-09-20T12:11:11.243Z,14.44
2022-09-20T12:13:52.236Z,14.43
2022-09-20T12:16:49.988Z,14.41
2022-09-20T12:19:38.739Z,14.41
2022-09-20T12:22:39.495Z,14.40
2022-09-20T12:25:55.846Z,14.40
2022-09-20T12:28:50.051Z,14.39
2022-09-20T12:31:26.299Z,14.39
2022-09-20T12:34:16.287Z,14.39
2022-09-20T12:37:00.853Z,14.40
2022-09-20T12:39:32.887Z,14.44
2022-09-20T12:42:09.514Z,14.44
2022-09-20T12:44:45.656Z,14.45
2022-09-20T12:47:24.103Z,14.48
2022-09-20T12:50:23.066Z,14.50
2022-09-20T12:53:16.649Z,14.50
2022-09-20T12:56:18.607Z,14.50
2022-09-20T12:58:45.076Z,14.51
2022-09-20T13:01:18.495Z,14.51
2022-09-20T13:03:50.950Z,14.49
2022-09-20T13:06:25.849Z,14.49
2022-09-20T13:09:05.609Z,14.50
2022-09-20T13:11:43.821Z,14.49
2022-09-20T13:14:22.539Z,14.48
2022-09-20T13:17:19.239Z,14.47
2022-09-20T13:20:31.419Z,14.45
2022-09-20T13:23:05.092Z,14.46
2022-09-20T13:25:38.999Z,14.47
2022-09-20T13:28:47.183Z,14.46
2022-09-20T13:31:37.643Z,14.47
2022-09-20T13:34:30.611Z,14.44
2022-09-20T13:37:21.721Z,14.47
2022-09-20T13:40:20.061Z,14.54
2022-09-20T13:42:48.892Z,14.61
2022-09-20T13:45:17.856Z,14.68
2022-09-20T13:48:16.591Z,14.74
2022-09-20T13:50:48.087Z,14.73
2022-09-20T13:53:41.002Z,14.70
2022-09-20T13:56:28.684Z,14.65
2022-09-20T13:59:20.390Z,14.62
2022-09-20T14:01:54.828Z,14.56
2022-09-20T14:04:24.003Z,14.51
2022-09-20T14:07:06.369Z,14.51
2022-09-20T14:09:45.157Z,14.51
2022-09-20T14:12:13.976Z,14.49
2022-09-20T14:14:41.687Z,14.47
2022-09-20T14:17:12.842Z,14.47
2022-09-20T14:19:49.089Z,14.47
2022-09-20T14:22:31.489Z,14.46
2022-09-20T14:25:04.310Z,14.46
2022-09-20T14:28:04.276Z,14.45
2022-09-20T14:30:48.343Z,14.44
2022-09-20T14:33:20.952Z,14.44
2022-09-20T14:35:51.251Z,14.44
2022-09-20T14:38:55.600Z,14.45
2022-09-20T14:41:46.569Z,14.46
2022-09-20T14:44:41.508Z,14.47
2022-09-20T14:47:17.228Z,14.50
2022-09-20T14:49:45.038Z,14.51
2022-09-20T14:52:38.664Z,14.50
2022-09-20T14:55:21.556Z,14.47
2022-09-20T14:58:11.441Z,14.44
2022-09-20T15:01:06.193Z,14.38
2022-09-20T15:03:40.833Z,14.39
2022-09-20T15:06:24.575Z,14.41
2022-09-20T15:09:03.696Z,14.44
2022-09-20T15:11:30.329Z,14.46
2022-09-20T15:14:12.477Z,14.50
2022-09-20T15:16:46.303Z,14.56
2022-09-20T15:19:12.821Z,14.61
2022-09-20T15:21:46.648Z,14.64
2022-09-20T15:24:21.249Z,14.65
2022-09-20T15:26:50.890Z,14.65
2022-09-20T15:30:03.352Z,14.61
2022-09-20T15:32:44.932Z,14.59
2022-09-20T15:35:15.287Z,14.52
2022-09-20T15:37:44.463Z,14.47
2022-09-20T15:41:04.274Z,14.42
2022-09-20T15:43:32.465Z,14.35
2022-09-20T15:46:19.645Z,14.31
2022-09-20T15:49:00.347Z,14.26
2022-09-20T15:51:43.052Z,14.23
2022-09-20T15:54:33.337Z,14.19
2022-09-20T15:57:00.960Z,14.15
2022-09-20T15:59:29.276Z,14.06
2022-09-20T16:02:03.022Z,14.00
2022-09-20T16:42:13.538Z,13.69
2022-09-20T16:47:27.145Z,13.64
2022-09-20T22:33:09.579Z,11.60
2022-09-20T22:36:31.312Z,11.57
2022-09-20T22:39:55.502Z,11.55
2022-09-20T22:55:03.813Z,11.40
2022-09-20T22:57:59.394Z,11.38
2022-09-20T23:09:01.738Z,11.28
2022-09-20T23:11:39.783Z,11.23
2022-09-20T23:14:20.766Z,11.21
2022-09-20T23:16:51.993Z,11.17
2022-09-20T23:19:23.206Z,11.14
2022-09-20T23:21:51.042Z,11.10
2022-09-20T23:24:34.180Z,11.07
2022-09-20T23:27:44.891Z,11.04
2022-09-20T23:30:17.146Z,10.98
2022-09-20T23:33:06.029Z,10.95
2022-09-20T23:35:49.393Z,10.90
2022-09-20T23:38:22.498Z,10.85
2022-09-20T23:47:51.151Z,10.71
2022-09-20T23:50:49.807Z,10.70
2022-09-20T23:53:34.132Z,10.64
2022-09-20T23:56:07.857Z,10.60
2022-09-20T23:58:59.657Z,10.55
